Time;durP1;ratioP1;P1;durP2;ratioP2;P2;SDS_P1;SDS_P2;PMS_P1;PMS_P2;Temp;Humidity;BMP_temperature;BMP_pressure;BME280_temperature;BME280_humidity;BME280_pressure;Samples;Min_cycle;Max_cycle;Signal;HPM_P1;HPM_P2
2023/10/13 00:01:59;;;;;;;7.45;4.43;;;21.40;72.00;22.90;100967.00;;;;5009758;28;20259;-76
2023/10/13 00:04:26;;;;;;;7.90;4.68;;;21.40;72.10;22.90;100973.00;;;;5011660;28;20268;-77
2023/10/13 00:06:56;;;;;;;6.95;5.00;;;21.40;72.00;22.90;100964.00;;;;5012536;28;20208;-76
2023/10/13 00:09:25;;;;;;;5.45;4.50;;;21.40;72.10;22.90;100962.00;;;;5028411;28;20228;-77
2023/10/13 00:11:55;;;;;;;7.05;4.07;;;21.40;72.10;22.90;100962.00;;;;5010973;28;20192;-77
2023/10/13 00:14:32;;;;;;;7.30;4.88;;;21.40;72.10;22.90;100959.00;;;;5009059;28;20303;-77
2023/10/13 00:17:08;;;;;;;5.28;4.22;;;21.40;72.10;22.90;100947.00;;;;5010096;28;20205;-77
2023/10/13 00:19:45;;;;;;;7.55;4.75;;;21.40;72.10;22.90;100946.00;;;;5017300;28;20204;-77
2023/10/13 00:22:15;;;;;;;6.22;4.53;;;21.40;72.10;22.90;100943.00;;;;5011090;28;20627;-77
2023/10/13 00:24:45;;;;;;;6.43;4.63;;;21.40;72.00;22.90;100941.00;;;;5026103;28;20196;-77
2023/10/13 00:27:29;;;;;;;4.88;3.90;;;21.40;72.10;22.90;100945.00;;;;5014679;28;20229;-77
2023/10/13 00:30:16;;;;;;;5.53;4.25;;;21.40;72.10;22.90;100942.00;;;;5024970;28;20693;-77
2023/10/13 00:32:44;;;;;;;5.57;3.85;;;21.40;72.10;22.90;100949.00;;;;5020782;28;20323;-76
2023/10/13 00:35:15;;;;;;;6.45;4.20;;;21.40;72.10;22.90;100934.00;;;;5017666;28;20224;-77
2023/10/13 00:37:43;;;;;;;5.60;4.90;;;21.40;72.10;22.90;100928.00;;;;5013859;28;20250;-77
2023/10/13 00:40:41;;;;;;;4.13;3.72;;;21.40;72.10;22.90;100933.00;;;;5027691;28;20188;-77
2023/10/13 00:43:32;;;;;;;5.15;4.57;;;21.40;72.10;22.90;100927.00;;;;5022296;28;20613;-76
2023/10/13 00:45:57;;;;;;;4.90;4.15;;;21.40;72.10;22.90;100929.00;;;;5011335;28;20207;-77
2023/10/13 00:48:28;;;;;;;6.53;4.55;;;21.40;72.10;22.90;100922.00;;;;5026035;28;20326;-77
2023/10/13 00:50:57;;;;;;;5.88;4.70;;;21.40;72.10;22.90;100911.00;;;;5015099;28;20193;-76
2023/10/13 00:53:28;;;;;;;5.95;5.03;;;21.40;72.10;22.90;100909.00;;;;5015786;28;20200;-76
2023/10/13 00:55:55;;;;;;;7.47;5.18;;;21.40;72.10;22.90;100913.00;;;;5023632;28;20197;-76
2023/10/13 00:58:27;;;;;;;6.32;5.05;;;21.40;72.10;22.90;100911.00;;;;5008516;28;20227;-77
2023/10/13 01:00:56;;;;;;;7.13;5.72;;;21.40;72.10;22.90;100906.00;;;;5017932;28;20202;-76
2023/10/13 01:03:26;;;;;;;6.05;5.07;;;21.40;72.10;22.90;100905.00;;;;5027273;28;20720;-76
2023/10/13 01:05:56;;;;;;;7.10;6.00;;;21.40;72.10;22.80;100894.00;;;;5011647;28;20208;-77
2023/10/13 01:08:44;;;;;;;6.75;5.45;;;21.40;72.20;22.70;100898.00;;;;5016287;28;20526;-77
2023/10/13 01:11:10;;;;;;;5.85;5.32;;;21.40;72.40;22.80;100894.00;;;;5010184;28;20220;-76
2023/10/13 01:13:41;;;;;;;7.25;5.85;;;21.40;72.20;22.80;100895.00;;;;5020091;28;20721;-77
2023/10/13 01:16:07;;;;;;;6.68;5.38;;;21.40;72.20;22.80;100884.00;;;;5019807;28;20196;-76
2023/10/13 01:18:46;;;;;;;8.85;5.65;;;21.40;72.20;22.80;100879.00;;;;5028415;28;20254;-76
2023/10/13 01:21:15;;;;;;;6.85;5.53;;;21.30;72.20;22.80;100880.00;;;;5018121;28;20200;-77
2023/10/13 01:23:45;;;;;;;8.07;5.38;;;21.30;72.30;22.80;100868.00;;;;5010906;28;20200;-76
2023/10/13 01:26:21;;;;;;;7.85;5.20;;;21.30;72.30;22.80;100867.00;;;;5008315;28;20201;-77
2023/10/13 01:28:48;;;;;;;7.45;4.90;;;21.30;72.30;22.80;100864.00;;;;5020732;28;20200;-77
2023/10/13 01:31:24;;;;;;;5.57;4.97;;;21.30;72.30;22.80;100861.00;;;;5028628;28;20208;-77
2023/10/13 01:33:54;;;;;;;8.68;5.22;;;21.30;72.30;22.80;100858.00;;;;5019944;28;20200;-77
2023/10/13 01:36:21;;;;;;;6.65;4.95;;;21.30;72.30;22.80;100864.00;;;;5010632;28;20557;-77
2023/10/13 01:38:51;;;;;;;6.47;4.72;;;21.40;72.40;22.80;100868.00;;;;5015656;28;20581;-77
2023/10/13 01:41:18;;;;;;;6.30;4.40;;;21.30;72.40;22.80;100852.00;;;;5014800;28;20192;-77
2023/10/13 01:43:45;;;;;;;6.00;3.97;;;21.30;72.40;22.90;100854.00;;;;5007359;28;20197;-76
2023/10/13 01:46:13;;;;;;;5.88;3.95;;;21.30;72.40;22.90;100843.00;;;;5013520;28;20223;-77
2023/10/13 01:48:43;;;;;;;7.28;4.47;;;21.40;72.50;22.90;100843.00;;;;5010460;28;20199;-77
2023/10/13 01:51:10;;;;;;;5.55;3.88;;;21.30;72.40;22.90;100844.00;;;;5010331;28;20225;-76
2023/10/13 01:53:38;;;;;;;5.88;4.05;;;21.40;72.40;22.90;100845.00;;;;5014128;28;20200;-76
2023/10/13 01:56:10;;;;;;;4.72;3.60;;;21.30;72.40;22.80;100843.00;;;;5023155;28;20243;-75
2023/10/13 01:58:41;;;;;;;4.55;3.55;;;21.40;72.40;22.80;100831.00;;;;5012523;28;20197;-77
2023/10/13 02:01:07;;;;;;;3.95;3.28;;;21.40;72.40;22.80;100832.00;;;;5024661;28;20206;-77
2023/10/13 02:03:41;;;;;;;7.88;3.33;;;21.30;72.20;22.80;100827.00;;;;5019280;28;20219;-77
2023/10/13 02:06:10;;;;;;;6.45;3.83;;;21.30;72.20;22.80;100827.00;;;;5013864;28;20214;-77
2023/10/13 02:08:43;;;;;;;5.55;3.30;;;21.30;72.20;22.80;100828.00;;;;5011638;28;20324;-78
2023/10/13 02:11:10;;;;;;;4.72;3.63;;;21.30;72.20;22.80;100820.00;;;;5011462;28;20308;-77
2023/10/13 02:13:42;;;;;;;6.68;3.38;;;21.30;72.30;22.80;100824.00;;;;5015428;28;20192;-76
2023/10/13 02:16:08;;;;;;;5.32;3.10;;;21.30;72.30;22.80;100820.00;;;;5027100;28;20228;-76
2023/10/13 02:18:41;;;;;;;8.70;3.97;;;21.30;72.30;22.80;100811.00;;;;5020910;28;20243;-77
2023/10/13 02:21:12;;;;;;;7.10;3.53;;;21.30;72.30;22.80;100809.00;;;;5022225;28;20205;-77
2023/10/13 02:23:45;;;;;;;4.60;3.50;;;21.20;72.20;22.70;100808.00;;;;5011998;28;20211;-77
2023/10/13 02:26:16;;;;;;;4.65;3.22;;;21.30;72.30;22.70;100801.00;;;;5012953;28;20205;-78
2023/10/13 02:28:49;;;;;;;6.80;3.38;;;21.30;72.40;22.80;100794.00;;;;5011392;28;20231;-77
2023/10/13 02:31:19;;;;;;;5.53;2.97;;;21.20;72.30;22.70;100794.00;;;;5019627;28;20196;-77
2023/10/13 02:33:46;;;;;;;5.45;3.55;;;21.20;72.20;22.70;100793.00;;;;5014321;28;20280;-77
2023/10/13 02:36:12;;;;;;;4.63;3.47;;;21.30;72.40;22.70;100787.00;;;;5016242;28;20229;-77
2023/10/13 02:38:45;;;;;;;4.60;3.17;;;21.20;72.30;22.70;100782.00;;;;5010645;28;20203;-77
2023/10/13 02:41:25;;;;;;;4.82;3.28;;;21.20;72.30;22.70;100776.00;;;;5014316;28;20200;-77
2023/10/13 02:43:53;;;;;;;3.85;3.30;;;21.20;72.40;22.80;100770.00;;;;5023182;28;20296;-77
2023/10/13 02:46:21;;;;;;;4.22;3.10;;;21.20;72.30;22.80;100763.00;;;;5014564;28;20193;-77
2023/10/13 02:48:52;;;;;;;6.28;2.95;;;21.30;72.40;22.80;100761.00;;;;5012141;28;20200;-77
2023/10/13 02:51:25;;;;;;;4.57;3.13;;;21.30;72.40;22.80;100755.00;;;;5010382;28;20205;-78
2023/10/13 02:53:53;;;;;;;5.05;3.45;;;21.20;72.30;22.80;100753.00;;;;5014393;28;20205;-78
2023/10/13 02:56:20;;;;;;;4.28;3.03;;;21.30;72.40;22.70;100746.00;;;;5019804;28;20228;-77
2023/10/13 02:58:53;;;;;;;4.90;3.30;;;21.20;72.30;22.70;100731.00;;;;5010149;28;20197;-77
2023/10/13 03:01:20;;;;;;;3.60;2.83;;;21.20;72.20;22.70;100728.00;;;;5009767;28;20197;-78
2023/10/13 03:03:54;;;;;;;5.30;3.17;;;21.20;72.30;22.70;100731.00;;;;5008632;28;20200;-77
2023/10/13 03:06:24;;;;;;;6.40;3.35;;;21.20;72.30;22.70;100716.00;;;;5014677;28;20204;-77
2023/10/13 03:08:52;;;;;;;4.00;2.88;;;21.20;72.30;22.70;100706.00;;;;5015373;28;20379;-77
2023/10/13 03:11:22;;;;;;;5.68;3.13;;;21.20;72.30;22.70;100696.00;;;;5019310;28;20211;-77
2023/10/13 03:13:52;;;;;;;3.67;2.45;;;21.20;72.30;22.70;100694.00;;;;5019420;28;20391;-77
2023/10/13 03:16:20;;;;;;;4.45;3.03;;;21.20;72.30;22.70;100690.00;;;;5026014;28;20228;-78
2023/10/13 03:18:55;;;;;;;2.83;2.63;;;21.20;72.30;22.70;100688.00;;;;5029514;28;20242;-77
2023/10/13 03:21:31;;;;;;;5.78;3.33;;;21.20;72.30;22.70;100680.00;;;;5030284;28;20192;-77
2023/10/13 03:24:06;;;;;;;3.63;2.88;;;21.20;72.30;22.70;100683.00;;;;5022768;28;20213;-77
2023/10/13 03:26:44;;;;;;;3.65;2.78;;;21.20;72.40;22.70;100682.00;;;;5023457;28;20196;-77
2023/10/13 03:29:13;;;;;;;4.10;3.22;;;21.20;72.40;22.80;100677.00;;;;5023797;28;20196;-77
2023/10/13 03:31:45;;;;;;;4.40;3.10;;;21.20;72.30;22.70;100682.00;;;;5022827;28;20201;-77
2023/10/13 03:34:12;;;;;;;5.53;3.05;;;21.20;72.30;22.70;100680.00;;;;5013801;28;20284;-77
2023/10/13 03:36:58;;;;;;;3.10;2.50;;;21.20;72.30;22.70;100695.00;;;;5018815;28;20251;-77
2023/10/13 03:39:29;;;;;;;6.78;3.00;;;21.20;72.20;22.70;100661.00;;;;5009916;28;20208;-77
2023/10/13 03:41:59;;;;;;;3.17;2.17;;;21.20;72.30;22.70;100654.00;;;;5010754;28;20655;-77
2023/10/13 03:44:30;;;;;;;3.42;2.72;;;21.20;72.30;22.70;100642.00;;;;5011033;28;20739;-77
2023/10/13 03:47:17;;;;;;;3.15;2.30;;;21.20;72.30;22.70;100644.00;;;;5010017;28;20315;-77
2023/10/13 03:49:45;;;;;;;5.07;2.38;;;21.20;72.40;22.70;100632.00;;;;5025574;28;20204;-77
2023/10/13 03:52:13;;;;;;;2.60;2.40;;;21.20;72.40;22.60;100622.00;;;;5029496;28;20204;-77
2023/10/13 03:54:40;;;;;;;2.88;2.33;;;21.10;72.30;22.60;100617.00;;;;5013335;28;20233;-78
2023/10/13 03:57:12;;;;;;;4.82;2.80;;;21.10;72.30;22.60;100606.00;;;;5019888;28;20204;-77
2023/10/13 03:59:40;;;;;;;3.97;2.50;;;21.10;72.40;22.60;100606.00;;;;5028618;28;20216;-77
2023/10/13 04:02:17;;;;;;;4.50;3.00;;;21.10;72.40;22.60;100606.00;;;;5014103;28;20231;-77
2023/10/13 04:04:48;;;;;;;3.60;2.63;;;21.10;72.40;22.60;100592.00;;;;5013708;28;20710;-77
2023/10/13 04:16:02;;;;;;;4.18;2.70;;;21.10;72.50;22.60;100563.00;;;;5008266;28;20225;-77
2023/10/13 04:18:49;;;;;;;2.92;2.63;;;21.10;72.50;22.60;100559.00;;;;5014864;28;20232;-77
2023/10/13 04:21:39;;;;;;;2.63;2.42;;;21.10;72.50;22.60;100547.00;;;;5021795;28;20606;-77
2023/10/13 04:24:37;;;;;;;2.88;2.42;;;21.10;72.50;22.60;100541.00;;;;5026916;28;20192;-78
2023/10/13 04:27:29;;;;;;;3.65;2.95;;;21.10;72.70;22.60;100539.00;;;;5014044;28;20283;-78
2023/10/13 04:30:11;;;;;;;4.20;2.83;;;21.10;72.70;22.60;100531.00;;;;5009429;28;20223;-78
2023/10/13 04:32:46;;;;;;;3.75;2.55;;;21.10;72.70;22.60;100528.00;;;;5009364;28;20594;-78
2023/10/13 04:35:18;;;;;;;4.82;3.08;;;21.10;72.70;22.60;100518.00;;;;5017422;28;20216;-78
2023/10/13 04:37:58;;;;;;;4.22;2.53;;;21.10;72.70;22.60;100519.00;;;;5008651;28;20853;-78
2023/10/13 04:40:25;;;;;;;2.95;2.45;;;21.10;72.70;22.60;100510.00;;;;5013907;28;20211;-78
2023/10/13 04:42:57;;;;;;;4.15;2.72;;;21.10;72.90;22.60;100500.00;;;;5010377;28;20303;-78
2023/10/13 04:45:38;;;;;;;3.38;2.65;;;21.10;72.90;22.60;100500.00;;;;5014440;28;20201;-78
2023/10/13 04:48:17;;;;;;;4.38;2.78;;;21.10;72.90;22.60;100503.00;;;;5010683;28;20213;-78
2023/10/13 04:50:50;;;;;;;3.65;2.40;;;21.10;72.90;22.50;100502.00;;;;5014593;28;20208;-78
2023/10/13 04:53:29;;;;;;;2.88;2.17;;;21.10;73.00;22.60;100511.00;;;;5018518;28;20637;-78
2023/10/13 04:56:53;;;;;;;3.58;2.80;;;21.10;73.10;22.60;100506.00;;;;5015901;28;20224;-78
2023/10/13 05:05:11;;;;;;;2.90;2.50;;;21.10;73.30;22.60;100491.00;;;;5016311;28;20218;-78
2023/10/13 05:47:01;;;;;;;10.60;3.58;;;21.40;73.70;22.80;100450.00;;;;5012557;28;20224;-78
2023/10/13 05:49:49;;;;;;;4.28;3.15;;;21.50;73.70;22.90;100455.00;;;;5013721;28;20662;-78
2023/10/13 06:28:40;;;;;;;9.02;3.50;;;21.50;73.60;22.90;100447.00;;;;5015724;28;20203;-77
2023/10/13 06:31:01;;;;;;;4.30;3.17;;;21.50;73.20;22.90;100392.00;;;;5031134;28;20203;-77
2023/10/13 06:33:29;;;;;;;7.10;3.35;;;21.50;73.30;23.00;100385.00;;;;5031283;28;20729;-77
2023/10/13 06:35:58;;;;;;;5.70;3.28;;;21.60;73.30;23.00;100382.00;;;;5028298;28;20231;-77
2023/10/13 06:38:30;;;;;;;4.05;3.08;;;21.60;73.40;23.00;100391.00;;;;5010156;28;20270;-77
2023/10/13 06:40:58;;;;;;;3.55;3.03;;;21.60;73.50;23.10;100390.00;;;;5011147;28;20208;-77
2023/10/13 06:43:32;;;;;;;4.82;3.28;;;21.60;73.50;23.10;100391.00;;;;5010793;28;20194;-77
2023/10/13 06:46:01;;;;;;;5.38;3.58;;;21.60;73.60;23.10;100387.00;;;;5011775;28;20219;-77
2023/10/13 06:48:32;;;;;;;3.58;3.17;;;21.60;73.60;23.10;100382.00;;;;5011371;28;20209;-77
2023/10/13 06:51:04;;;;;;;3.78;3.33;;;21.70;73.70;23.20;100390.00;;;;5016246;28;20625;-77
2023/10/13 06:53:36;;;;;;;3.67;3.30;;;21.70;73.70;23.20;100390.00;;;;5010767;28;20563;-77
2023/10/13 06:56:09;;;;;;;4.30;3.50;;;21.70;73.70;23.20;100389.00;;;;5019002;28;20315;-77
2023/10/13 06:58:36;;;;;;;7.28;3.65;;;21.70;73.90;23.20;100385.00;;;;5010726;28;20216;-77
2023/10/13 07:01:14;;;;;;;6.47;3.10;;;21.70;73.80;23.20;100378.00;;;;5011057;28;20212;-77
2023/10/13 07:03:42;;;;;;;3.63;3.15;;;21.70;73.90;23.30;100373.00;;;;5011552;28;20204;-77
2023/10/13 07:06:11;;;;;;;3.78;3.03;;;21.80;74.00;23.30;100367.00;;;;5019930;28;20208;-77
2023/10/13 07:08:39;;;;;;;4.80;3.08;;;21.80;73.90;23.30;100354.00;;;;5022385;28;20194;-77
2023/10/13 07:11:13;;;;;;;4.35;3.40;;;21.80;74.00;23.30;100350.00;;;;5027924;28;20258;-77
2023/10/13 07:13:47;;;;;;;5.70;3.35;;;21.80;73.90;23.40;100353.00;;;;5030829;28;20206;-77
2023/10/13 07:16:14;;;;;;;5.35;3.55;;;21.80;74.00;23.40;100336.00;;;;5030326;28;20239;-77
2023/10/13 07:18:49;;;;;;;7.22;4.35;;;21.90;74.00;23.40;100334.00;;;;5030400;28;20196;-77
2023/10/13 07:21:16;;;;;;;5.95;3.28;;;21.90;74.00;23.40;100313.00;;;;5030829;28;20666;-77
2023/10/13 07:23:49;;;;;;;5.28;3.58;;;21.90;73.90;23.40;100304.00;;;;5028904;28;20204;-77
2023/10/13 07:26:17;;;;;;;4.47;2.97;;;22.00;74.00;23.40;100307.00;;;;5022258;28;20209;-76
2023/10/13 07:28:44;;;;;;;5.57;3.45;;;22.00;73.90;23.40;100316.00;;;;5009876;28;20207;-77
2023/10/13 07:31:14;;;;;;;3.40;2.75;;;22.00;73.90;23.40;100324.00;;;;5010772;28;20433;-76
2023/10/13 07:33:42;;;;;;;6.75;3.58;;;22.00;73.90;23.50;100307.00;;;;5009582;28;20224;-77
2023/10/13 07:36:17;;;;;;;7.78;3.45;;;22.00;73.90;23.50;100308.00;;;;5010403;28;20213;-76
2023/10/13 07:38:48;;;;;;;6.03;3.10;;;22.00;73.80;23.50;100311.00;;;;5009675;28;20242;-76
2023/10/13 07:41:17;;;;;;;5.00;2.78;;;22.00;73.70;23.50;100301.00;;;;5009808;28;20683;-78
2023/10/13 07:43:46;;;;;;;4.68;3.38;;;22.10;73.80;23.50;100305.00;;;;5023712;28;20690;-78
2023/10/13 07:46:13;;;;;;;5.95;2.80;;;22.10;73.80;23.50;100313.00;;;;5029911;28;20192;-77
2023/10/13 07:48:45;;;;;;;4.38;3.05;;;22.10;73.70;23.50;100311.00;;;;5030373;28;20203;-77
2023/10/13 07:51:15;;;;;;;7.80;3.22;;;22.10;73.70;23.50;100306.00;;;;5029144;28;20654;-76
2023/10/13 07:53:43;;;;;;;6.00;3.40;;;22.10;73.70;23.50;100297.00;;;;5029646;28;20684;-77
2023/10/13 07:56:12;;;;;;;8.60;2.88;;;22.10;73.70;23.60;100321.00;;;;5014491;28;20788;-77
2023/10/13 07:58:52;;;;;;;5.43;3.13;;;22.10;73.70;23.60;100311.00;;;;5010117;28;20259;-77
2023/10/13 08:01:19;;;;;;;9.27;3.28;;;22.10;73.70;23.60;100281.00;;;;5029823;28;20200;-77
2023/10/13 08:03:49;;;;;;;4.60;3.05;;;22.10;73.60;23.60;100292.00;;;;5029699;28;20208;-77
2023/10/13 08:06:21;;;;;;;6.30;2.70;;;22.10;73.70;23.60;100296.00;;;;5029894;28;20246;-77
2023/10/13 08:08:53;;;;;;;8.93;3.17;;;22.20;73.70;23.60;100297.00;;;;5014190;28;20205;-77
2023/10/13 08:11:30;;;;;;;5.28;3.00;;;22.20;73.70;23.70;100289.00;;;;5028736;28;20204;-77
2023/10/13 08:14:10;;;;;;;6.70;3.20;;;22.20;73.70;23.70;100298.00;;;;5029465;28;20200;-77
2023/10/13 08:16:49;;;;;;;6.20;3.30;;;22.20;73.70;23.70;100299.00;;;;5023083;28;20243;-76
2023/10/13 08:19:18;;;;;;;7.63;2.97;;;22.20;73.70;23.70;100284.00;;;;5012859;28;20284;-76
2023/10/13 08:21:51;;;;;;;5.57;3.00;;;22.30;73.70;23.80;100295.00;;;;5009844;28;20219;-77
2023/10/13 08:24:27;;;;;;;6.35;3.15;;;22.30;73.60;23.80;100285.00;;;;5009817;28;20205;-77
2023/10/13 08:32:44;;;;;;;5.70;3.30;;;22.40;73.60;23.90;100282.00;;;;5009016;28;20212;-76
2023/10/13 08:35:22;;;;;;;6.95;2.80;;;22.40;73.50;23.90;100280.00;;;;5026695;28;20211;-76
2023/10/13 08:37:59;;;;;;;10.50;2.83;;;22.50;73.50;23.90;100274.00;;;;5029086;28;20223;-77
2023/10/13 08:43:14;;;;;;;7.40;3.35;;;22.50;73.20;24.00;100284.00;;;;5011591;28;20207;-76
2023/10/13 08:45:58;;;;;;;7.90;3.42;;;22.50;73.10;24.00;100292.00;;;;5029136;28;20235;-77
2023/10/13 08:48:35;;;;;;;9.75;3.70;;;22.60;73.10;24.00;100276.00;;;;5029211;28;20334;-77
2023/10/13 08:51:10;;;;;;;8.20;4.10;;;22.60;73.10;24.00;100261.00;;;;5018859;28;20204;-76
2023/10/13 08:53:45;;;;;;;7.00;3.30;;;22.60;73.00;24.10;100264.00;;;;5020841;28;20207;-76
2023/10/13 08:56:17;;;;;;;12.00;3.35;;;22.60;72.90;24.10;100261.00;;;;5028235;28;20683;-77
2023/10/13 08:59:05;;;;;;;9.20;3.20;;;22.70;72.80;24.10;100256.00;;;;5028995;28;20608;-77
2023/10/13 09:01:37;;;;;;;8.02;2.70;;;22.70;72.70;24.10;100236.00;;;;5027569;28;20208;-76
2023/10/13 09:04:27;;;;;;;7.45;2.95;;;22.70;72.60;24.20;100244.00;;;;5028767;28;20207;-76
2023/10/13 09:07:15;;;;;;;7.65;3.15;;;22.80;72.50;24.20;100252.00;;;;5026007;28;20239;-76
2023/10/13 09:10:11;;;;;;;7.82;3.67;;;22.80;72.50;24.10;100255.00;;;;5024223;28;20776;-76
2023/10/13 09:13:00;;;;;;;7.43;3.28;;;22.80;72.10;24.20;100246.00;;;;5027996;28;20207;-76
2023/10/13 09:18:41;;;;;;;7.03;2.90;;;22.80;72.00;24.10;100237.00;;;;5027635;28;20548;-76
2023/10/13 09:21:29;;;;;;;6.20;3.67;;;22.80;71.70;24.30;100238.00;;;;5028089;28;20204;-77
2023/10/13 09:24:16;;;;;;;8.05;3.38;;;22.90;71.90;24.30;100235.00;;;;5011708;28;20197;-76
2023/10/13 09:26:44;;;;;;;9.73;3.72;;;22.90;71.80;24.30;100239.00;;;;5023637;28;20230;-76
2023/10/13 09:29:19;;;;;;;12.98;3.47;;;22.90;71.80;24.20;100238.00;;;;5025891;28;20196;-76
2023/10/13 09:31:48;;;;;;;5.30;3.38;;;22.90;71.60;24.30;100239.00;;;;5009028;28;20200;-76
2023/10/13 09:34:29;;;;;;;7.53;3.45;;;22.90;71.60;24.30;100239.00;;;;5009132;28;20208;-76
2023/10/13 09:36:57;;;;;;;6.65;3.80;;;22.90;71.50;24.30;100240.00;;;;5008383;28;20241;-76
2023/10/13 09:39:44;;;;;;;7.13;3.33;;;22.90;71.60;24.30;100231.00;;;;5013030;28;20737;-77
2023/10/13 09:42:12;;;;;;;7.00;3.47;;;23.00;71.50;24.40;100225.00;;;;5018099;28;20677;-76
2023/10/13 09:44:41;;;;;;;10.05;4.38;;;23.00;71.40;24.40;100216.00;;;;5008363;28;20251;-77
2023/10/13 09:47:18;;;;;;;6.50;3.17;;;23.00;71.30;24.40;100212.00;;;;5008609;28;20209;-76
2023/10/13 09:49:48;;;;;;;11.45;3.45;;;23.00;71.00;24.40;100211.00;;;;5008146;28;20571;-76
2023/10/13 09:52:25;;;;;;;8.18;3.65;;;23.10;71.20;24.40;100205.00;;;;5007832;28;20201;-76
2023/10/13 09:55:11;;;;;;;9.02;3.72;;;23.00;71.10;24.40;100200.00;;;;5007980;28;20294;-76
2023/10/13 09:57:45;;;;;;;8.65;4.32;;;23.10;70.80;24.40;100184.00;;;;5022345;28;20227;-75
2023/10/13 10:00:44;;;;;;;8.40;3.63;;;23.10;71.50;24.40;100185.00;;;;5010435;28;20217;-75
2023/10/13 10:06:06;;;;;;;7.85;3.33;;;23.10;70.70;24.50;100186.00;;;;5007458;28;20686;-75
2023/10/13 10:08:34;;;;;;;9.00;3.67;;;23.10;70.60;24.50;100184.00;;;;5008308;28;20214;-75
2023/10/13 10:11:22;;;;;;;5.43;3.65;;;23.10;70.60;24.40;100182.00;;;;5007841;28;20224;-75
2023/10/13 10:14:01;;;;;;;5.30;3.35;;;23.20;70.50;24.50;100174.00;;;;5009643;28;20193;-74
2023/10/13 10:16:49;;;;;;;13.63;4.78;;;23.20;70.40;24.50;100174.00;;;;5012874;28;20224;-75
2023/10/13 10:19:16;;;;;;;9.18;3.85;;;23.20;70.20;24.60;100179.00;;;;5011411;28;20211;-76
2023/10/13 10:21:44;;;;;;;6.57;3.30;;;23.20;70.30;24.60;100173.00;;;;5028099;28;20205;-75
2023/10/13 10:24:29;;;;;;;11.18;3.75;;;23.20;70.30;24.60;100173.00;;;;5011901;28;20200;-75
2023/10/13 10:26:57;;;;;;;10.68;4.88;;;23.20;70.00;24.60;100165.00;;;;5011493;28;20205;-75
2023/10/13 10:29:24;;;;;;;5.07;3.30;;;23.30;70.30;24.70;100164.00;;;;5020898;28;20200;-74
2023/10/13 10:31:51;;;;;;;11.30;4.03;;;23.30;70.20;24.70;100160.00;;;;5032890;28;20563;-75
2023/10/13 10:34:19;;;;;;;9.73;3.88;;;23.30;70.10;24.70;100161.00;;;;5011298;28;20683;-76
2023/10/13 10:36:55;;;;;;;6.13;3.60;;;23.30;70.00;24.70;100157.00;;;;5010818;28;20260;-75
2023/10/13 10:39:35;;;;;;;5.95;3.58;;;23.40;70.20;24.70;100157.00;;;;5012233;28;20211;-75
2023/10/13 10:42:15;;;;;;;8.32;4.30;;;23.40;70.20;24.80;100144.00;;;;5017055;28;20204;-76
2023/10/13 10:44:43;;;;;;;6.93;3.67;;;23.40;69.90;24.90;100145.00;;;;5016108;28;20204;-76
2023/10/13 10:47:19;;;;;;;6.95;3.60;;;23.50;70.10;24.90;100136.00;;;;5010540;28;20208;-75
2023/10/13 10:49:47;;;;;;;10.32;4.82;;;23.50;70.00;25.00;100152.00;;;;5017757;28;20291;-75
2023/10/13 10:52:21;;;;;;;7.20;3.90;;;23.60;70.00;25.00;100152.00;;;;5030605;28;20197;-75
2023/10/13 10:54:59;;;;;;;6.72;3.55;;;23.60;69.70;25.10;100138.00;;;;5030288;28;20214;-76
2023/10/13 10:57:28;;;;;;;7.30;4.00;;;23.70;69.70;25.20;100143.00;;;;5029957;28;20216;-76
2023/10/13 11:00:10;;;;;;;6.72;4.28;;;23.80;69.70;25.20;100142.00;;;;5030920;28;20193;-75
2023/10/13 11:02:38;;;;;;;18.05;4.43;;;23.80;69.40;25.30;100137.00;;;;5010547;28;20201;-75
2023/10/13 11:05:09;;;;;;;7.22;4.32;;;23.80;69.20;25.30;100126.00;;;;5010618;28;20204;-75
2023/10/13 11:07:37;;;;;;;8.00;4.03;;;23.90;69.20;25.40;100132.00;;;;5011641;28;20223;-76
2023/10/13 11:10:19;;;;;;;5.80;4.15;;;23.90;69.00;25.30;100134.00;;;;5027099;28;20751;-75
2023/10/13 11:12:56;;;;;;;7.55;3.75;;;24.00;68.30;25.30;100132.00;;;;5016929;28;20189;-75
2023/10/13 11:15:33;;;;;;;10.65;4.80;;;24.00;68.00;25.40;100135.00;;;;5011227;28;20201;-75
2023/10/13 11:18:00;;;;;;;12.00;5.03;;;24.10;68.30;25.40;100108.00;;;;5011097;28;20227;-75
2023/10/13 11:20:33;;;;;;;10.57;4.15;;;24.10;67.80;25.40;100116.00;;;;5010169;28;20215;-75
2023/10/13 11:23:04;;;;;;;7.03;3.95;;;24.10;67.90;25.40;100100.00;;;;5011184;28;20193;-75
2023/10/13 11:25:35;;;;;;;7.82;4.22;;;24.10;67.80;25.50;100091.00;;;;5009256;28;20550;-75
2023/10/13 11:28:17;;;;;;;10.65;3.90;;;24.10;67.70;25.40;100107.00;;;;5010548;28;20204;-75
2023/10/13 11:30:49;;;;;;;6.78;3.72;;;24.10;67.20;25.50;100088.00;;;;5010401;28;20576;-75
2023/10/13 11:33:21;;;;;;;7.90;4.15;;;24.20;67.50;25.50;100070.00;;;;5010403;28;20197;-75
2023/10/13 11:35:56;;;;;;;10.50;4.82;;;24.10;67.20;25.50;100074.00;;;;5010827;28;20275;-75
2023/10/13 11:38:26;;;;;;;9.48;4.28;;;24.20;66.80;25.50;100060.00;;;;5010757;28;20239;-75
2023/10/13 11:41:11;;;;;;;6.95;3.92;;;24.20;66.60;25.50;100077.00;;;;5017301;28;20223;-75
2023/10/13 11:44:12;;;;;;;7.57;3.92;;;24.20;66.60;25.50;100080.00;;;;5009891;28;20205;-76
2023/10/13 11:46:55;;;;;;;11.02;3.85;;;24.20;66.80;25.60;100057.00;;;;5027155;28;20208;-76
2023/10/13 11:49:36;;;;;;;13.68;5.10;;;24.20;66.50;25.60;100053.00;;;;5010563;28;20254;-77
2023/10/13 11:54:46;;;;;;;11.23;4.97;;;24.30;65.90;25.60;100067.00;;;;5010701;28;20655;-76
2023/10/13 11:57:16;;;;;;;12.55;4.75;;;24.30;65.70;25.60;100069.00;;;;5024921;28;20224;-75
2023/10/13 11:59:53;;;;;;;8.55;4.68;;;24.30;65.70;25.60;100060.00;;;;5013990;28;20193;-76
2023/10/13 12:05:17;;;;;;;9.80;5.10;;;24.30;65.40;25.60;100063.00;;;;5002243;28;20207;-75
2023/10/13 12:07:48;;;;;;;18.92;5.10;;;24.30;65.70;25.60;100068.00;;;;5018709;28;20196;-76
2023/10/13 12:10:32;;;;;;;6.70;4.43;;;24.30;65.70;25.60;100075.00;;;;5010051;28;20225;-75
2023/10/13 12:13:05;;;;;;;7.68;4.40;;;24.30;65.30;25.60;100082.00;;;;5008886;28;20196;-76
2023/10/13 12:15:48;;;;;;;8.38;4.50;;;24.30;65.50;25.60;100080.00;;;;5020631;28;20196;-76
2023/10/13 12:18:16;;;;;;;11.20;4.82;;;24.30;65.40;25.60;100086.00;;;;5028118;28;20311;-75
2023/10/13 12:20:45;;;;;;;7.68;4.93;;;24.30;65.10;25.60;100076.00;;;;5020182;28;20208;-75
2023/10/13 12:23:17;;;;;;;11.70;4.88;;;24.30;65.10;25.60;100078.00;;;;5024888;28;20204;-76
2023/10/13 12:25:57;;;;;;;14.25;5.35;;;24.30;65.10;25.60;100059.00;;;;5008120;28;20197;-76
2023/10/13 12:28:26;;;;;;;9.15;4.28;;;24.30;65.20;25.60;100059.00;;;;5008353;28;20292;-76
2023/10/13 12:30:57;;;;;;;9.25;5.07;;;24.30;65.30;25.60;100076.00;;;;5007750;28;20205;-76
2023/10/13 12:33:26;;;;;;;13.48;4.32;;;24.30;65.30;25.60;100057.00;;;;5021355;28;20220;-76
2023/10/13 12:36:14;;;;;;;7.68;4.93;;;24.30;65.10;25.60;100036.00;;;;5011378;28;20286;-76
2023/10/13 12:49:52;;;;;;;11.32;4.15;;;24.40;64.80;25.70;100043.00;;;;5011441;28;20331;-76
2023/10/13 12:52:19;;;;;;;9.75;4.65;;;24.40;64.70;25.70;100058.00;;;;5012930;28;20250;-76
2023/10/13 12:54:58;;;;;;;8.55;4.32;;;24.40;64.50;25.70;100043.00;;;;5029004;28;20207;-75
2023/10/13 12:57:27;;;;;;;11.82;4.40;;;24.40;64.50;25.70;100044.00;;;;5028856;28;20231;-76
2023/10/13 12:59:55;;;;;;;10.30;4.60;;;24.50;64.40;25.70;100052.00;;;;5027925;28;20210;-76
2023/10/13 13:02:24;;;;;;;8.95;4.05;;;24.50;64.40;25.70;100052.00;;;;5029102;28;20196;-76
2023/10/13 13:04:56;;;;;;;10.05;4.75;;;24.50;64.50;25.70;100057.00;;;;5027891;28;20562;-75
2023/10/13 13:07:29;;;;;;;9.43;4.47;;;24.50;64.40;25.70;100042.00;;;;5028849;28;20216;-75
2023/10/13 13:09:59;;;;;;;12.85;4.80;;;24.50;64.30;25.70;100045.00;;;;5014579;28;20315;-75
2023/10/13 13:12:29;;;;;;;8.82;3.67;;;24.50;64.30;25.70;100051.00;;;;5022659;28;20266;-75
2023/10/13 13:14:56;;;;;;;6.22;4.10;;;24.50;64.30;25.80;100049.00;;;;5027658;28;20234;-75